Time;durP1;ratioP1;P1;durP2;ratioP2;P2;SDS_P1;SDS_P2;PMS_P1;PMS_P2;Temp;Humidity;BMP_temperature;BMP_pressure;BME280_temperature;BME280_humidity;BME280_pressure;Samples;Min_cycle;Max_cycle;Signal;HPM_P1;HPM_P2
2023/09/23 00:00:03;;;;;;;3.88;2.85;;;;;;;13.72;100.00;100494.13;5040370;28;20029;-75
2023/09/23 00:02:28;;;;;;;3.17;2.13;;;;;;;13.78;100.00;100500.13;5037401;28;20041;-75
2023/09/23 00:04:54;;;;;;;4.10;2.60;;;;;;;13.73;100.00;100492.13;5043147;28;20122;-75
2023/09/23 00:07:19;;;;;;;4.40;2.92;;;;;;;13.56;100.00;100500.22;5040262;28;20067;-75
2023/09/23 00:09:44;;;;;;;3.80;2.38;;;;;;;13.64;100.00;100506.63;5042728;28;20523;-76
2023/09/23 00:12:11;;;;;;;3.22;2.00;;;;;;;13.74;100.00;100507.78;5024276;28;20411;-75
2023/09/23 00:14:36;;;;;;;4.50;2.72;;;;;;;13.71;100.00;100511.44;5041671;28;20251;-75
2023/09/23 00:17:03;;;;;;;3.33;2.17;;;;;;;13.45;100.00;100504.28;5017954;28;20419;-76
2023/09/23 00:19:33;;;;;;;3.65;2.70;;;;;;;13.62;100.00;100515.47;5045206;28;20103;-75
2023/09/23 00:21:59;;;;;;;5.38;2.88;;;;;;;13.69;100.00;100514.63;5043078;28;20036;-76
2023/09/23 00:24:25;;;;;;;6.55;3.05;;;;;;;13.61;100.00;100522.28;5043910;28;20036;-75
2023/09/23 00:26:50;;;;;;;4.18;2.80;;;;;;;13.53;100.00;100522.72;5026309;28;20029;-75
2023/09/23 00:29:17;;;;;;;4.30;2.92;;;;;;;13.51;100.00;100525.16;5022483;28;20065;-76
2023/09/23 00:31:43;;;;;;;4.18;2.50;;;;;;;13.56;100.00;100525.53;5026671;28;20032;-76
2023/09/23 00:34:09;;;;;;;3.53;2.63;;;;;;;13.52;100.00;100516.31;5040910;28;20104;-76
2023/09/23 00:36:34;;;;;;;4.13;2.58;;;;;;;13.55;100.00;100520.31;5042211;28;20119;-76
2023/09/23 00:39:03;;;;;;;5.40;2.42;;;;;;;13.56;100.00;100528.34;5027211;28;20123;-76
2023/09/23 00:41:29;;;;;;;2.85;2.28;;;;;;;13.61;100.00;100530.72;5041300;28;20028;-76
2023/09/23 00:43:54;;;;;;;3.67;2.10;;;;;;;13.62;100.00;100537.97;5023815;28;20415;-76
2023/09/23 00:46:22;;;;;;;2.83;2.25;;;;;;;13.66;100.00;100537.16;5040010;28;20021;-76
2023/09/23 00:48:50;;;;;;;3.65;2.00;;;;;;;13.60;100.00;100533.97;5018257;28;20040;-77
2023/09/23 00:51:17;;;;;;;3.53;2.38;;;;;;;13.41;100.00;100532.44;5036751;28;20029;-76
2023/09/23 00:53:44;;;;;;;3.45;2.05;;;;;;;13.55;100.00;100537.19;5042376;28;20500;-76
2023/09/23 00:56:12;;;;;;;3.10;1.92;;;;;;;13.31;100.00;100538.88;5046012;28;20104;-76
2023/09/23 00:58:37;;;;;;;4.80;2.22;;;;;;;13.34;100.00;100536.03;5031128;28;20017;-76
2023/09/23 01:01:08;;;;;;;3.05;2.15;;;;;;;13.15;100.00;100542.88;5026755;28;20048;-77
2023/09/23 01:03:36;;;;;;;2.92;2.20;;;;;;;13.01;100.00;100537.28;5048299;28;20191;-76
2023/09/23 01:06:03;;;;;;;2.72;2.42;;;;;;;13.26;100.00;100542.88;5045961;28;20043;-76
2023/09/23 01:08:30;;;;;;;4.38;2.00;;;;;;;13.34;100.00;100549.28;5027040;28;20029;-76
2023/09/23 01:10:55;;;;;;;5.35;2.13;;;;;;;13.20;100.00;100545.28;5047281;28;20025;-77
2023/09/23 01:13:23;;;;;;;4.35;1.65;;;;;;;13.02;100.00;100550.13;5044491;28;20400;-76
2023/09/23 01:15:51;;;;;;;5.50;2.20;;;;;;;13.13;100.00;100550.09;5041965;28;20044;-76
2023/09/23 01:18:17;;;;;;;3.50;2.33;;;;;;;13.20;100.00;100544.50;5045540;28;20037;-76
2023/09/23 01:20:44;;;;;;;3.05;1.83;;;;;;;13.10;100.00;100551.72;5041810;28;20029;-76
2023/09/23 01:23:10;;;;;;;3.15;2.28;;;;;;;13.14;100.00;100552.53;5046350;28;20090;-76
2023/09/23 01:25:39;;;;;;;4.20;3.40;;;;;;;13.17;100.00;100546.06;5041432;28;20035;-76
2023/09/23 01:28:13;;;;;;;5.00;2.05;;;;;;;13.12;100.00;100548.50;5028007;28;20032;-77
2023/09/23 01:30:46;;;;;;;4.40;2.20;;;;;;;13.02;100.00;100552.94;5049795;28;20644;-76
2023/09/23 01:33:13;;;;;;;2.95;2.10;;;;;;;13.05;100.00;100554.13;5039129;28;20051;-76
2023/09/23 01:35:40;;;;;;;3.97;2.95;;;;;;;12.85;100.00;100550.94;5046577;28;20048;-76
2023/09/23 01:38:05;;;;;;;4.25;2.95;;;;;;;12.96;100.00;100557.34;5048262;28;20079;-75
2023/09/23 01:40:31;;;;;;;3.22;2.78;;;;;;;12.97;100.00;100548.53;5046135;28;20028;-75
2023/09/23 01:43:00;;;;;;;4.35;2.75;;;;;;;12.88;100.00;100556.56;5044865;28;20108;-75
2023/09/23 01:45:25;;;;;;;6.25;2.92;;;;;;;12.90;100.00;100558.94;5046032;28;20488;-75
2023/09/23 01:47:52;;;;;;;3.13;2.72;;;;;;;12.86;100.00;100560.97;5045930;28;20029;-76
2023/09/23 01:50:18;;;;;;;4.15;3.30;;;;;;;12.90;100.00;100561.75;5049033;28;20035;-75
2023/09/23 01:52:45;;;;;;;7.97;3.88;;;;;;;12.98;100.00;100560.56;5043704;28;20039;-76
2023/09/23 01:55:12;;;;;;;5.93;3.40;;;;;;;12.97;100.00;100558.97;5046089;28;20025;-75
2023/09/23 01:57:38;;;;;;;7.47;4.05;;;;;;;12.91;100.00;100554.94;5044493;28;20485;-75
2023/09/23 02:00:06;;;;;;;4.93;3.58;;;;;;;12.87;100.00;100559.75;5043611;28;20028;-76
2023/09/23 02:02:32;;;;;;;6.13;3.45;;;;;;;12.89;100.00;100562.97;5043859;28;20103;-75
2023/09/23 02:04:57;;;;;;;4.32;3.05;;;;;;;12.91;100.00;100560.56;5045759;28;20048;-75
2023/09/23 02:07:22;;;;;;;5.25;3.38;;;;;;;12.95;100.00;100567.78;5046841;28;20025;-75
2023/09/23 02:09:48;;;;;;;5.07;3.35;;;;;;;12.75;100.00;100564.56;5045610;28;20469;-76
2023/09/23 02:12:14;;;;;;;6.25;3.92;;;;;;;12.84;100.00;100568.97;5045086;28;20063;-75
2023/09/23 02:14:40;;;;;;;5.10;3.63;;;;;;;12.87;100.00;100563.38;5046232;28;20493;-76
2023/09/23 02:17:05;;;;;;;4.55;3.35;;;;;;;12.56;100.00;100573.38;5044780;28;20105;-75
2023/09/23 02:19:31;;;;;;;7.68;3.90;;;;;;;12.71;100.00;100577.00;5042796;28;20028;-76
2023/09/23 02:21:56;;;;;;;6.90;4.00;;;;;;;12.87;100.00;100585.03;5045733;28;20123;-75
2023/09/23 02:24:22;;;;;;;5.53;3.20;;;;;;;12.79;100.00;100581.41;5045804;28;20036;-75
2023/09/23 02:26:48;;;;;;;4.38;3.00;;;;;;;12.88;100.00;100578.22;5046630;28;20025;-75
2023/09/23 02:29:14;;;;;;;5.43;3.13;;;;;;;12.79;100.00;100587.84;5043258;28;20112;-76
2023/09/23 02:31:48;;;;;;;5.30;3.22;;;;;;;12.85;100.00;100587.44;5040212;28;20041;-75
2023/09/23 02:34:16;;;;;;;5.05;3.00;;;;;;;12.76;100.00;100588.66;5039448;28;20029;-75
2023/09/23 02:36:45;;;;;;;4.38;3.20;;;;;;;12.74;100.00;100593.06;5038502;28;20036;-76
2023/09/23 02:39:16;;;;;;;8.93;4.03;;;;;;;12.88;100.00;100595.06;5044210;28;20044;-75
2023/09/23 02:41:45;;;;;;;5.72;3.28;;;;;;;12.79;100.00;100593.44;5039811;28;20029;-75
2023/09/23 02:44:11;;;;;;;3.50;2.47;;;;;;;12.85;100.00;100607.13;5045156;28;20029;-75
2023/09/23 02:46:37;;;;;;;5.18;3.40;;;;;;;12.68;100.00;100608.69;5047729;28;20020;-76
2023/09/23 02:49:02;;;;;;;6.07;3.20;;;;;;;12.82;100.00;100603.09;5026975;28;20040;-75
2023/09/23 02:51:28;;;;;;;5.18;3.63;;;;;;;12.72;100.00;100610.31;5028718;28;20025;-75
2023/09/23 02:53:53;;;;;;;5.55;3.08;;;;;;;12.77;100.00;100612.72;5044097;28;20386;-75
2023/09/23 02:56:18;;;;;;;5.15;3.40;;;;;;;12.70;100.00;100606.31;5043406;28;20527;-75
2023/09/23 02:58:44;;;;;;;6.85;4.07;;;;;;;12.84;100.00;100605.50;5046991;28;20503;-75
2023/09/23 03:01:14;;;;;;;6.07;3.97;;;;;;;12.84;100.00;100611.13;5042392;28;20021;-75
2023/09/23 03:03:40;;;;;;;4.68;3.45;;;;;;;12.59;100.00;100611.91;5046832;28;20032;-75
2023/09/23 03:06:10;;;;;;;6.00;3.53;;;;;;;12.61;100.00;100613.09;5042960;28;20511;-75
2023/09/23 03:08:37;;;;;;;5.47;3.85;;;;;;;12.76;100.00;100622.34;5045483;28;20017;-72
2023/09/23 03:11:02;;;;;;;4.03;3.15;;;;;;;12.80;100.00;100622.38;5047203;28;20039;-73
2023/09/23 03:13:29;;;;;;;5.80;3.30;;;;;;;12.77;100.00;100618.31;5042956;28;20020;-72
2023/09/23 03:15:58;;;;;;;4.85;3.35;;;;;;;12.85;100.00;100629.59;5042222;28;20029;-73
2023/09/23 03:18:33;;;;;;;5.03;3.05;;;;;;;12.72;100.00;100629.97;5047483;28;20024;-72
2023/09/23 03:21:08;;;;;;;9.50;3.55;;;;;;;12.79;100.00;100627.16;5040071;28;20029;-72
2023/09/23 03:23:39;;;;;;;4.57;2.90;;;;;;;12.70;100.00;100629.56;5043660;28;20025;-73
2023/09/23 03:26:06;;;;;;;5.53;3.38;;;;;;;12.65;100.00;100632.78;5033498;28;20025;-73
2023/09/23 03:28:32;;;;;;;5.72;3.25;;;;;;;12.61;100.00;100631.97;5022873;28;20041;-74
2023/09/23 03:31:00;;;;;;;6.05;3.58;;;;;;;12.65;100.00;100635.59;5042040;28;20089;-72
2023/09/23 03:33:27;;;;;;;5.72;3.53;;;;;;;12.47;100.00;100632.72;5037194;28;20033;-73
2023/09/23 03:35:53;;;;;;;7.50;4.10;;;;;;;12.45;100.00;100629.50;5042235;28;20090;-72
2023/09/23 03:38:19;;;;;;;7.35;3.85;;;;;;;12.54;100.00;100627.13;5025977;28;20116;-72
2023/09/23 03:40:52;;;;;;;6.82;4.38;;;;;;;12.56;100.00;100635.94;5046061;28;20128;-72
2023/09/23 03:43:17;;;;;;;;;;;;;;;12.57;100.00;100637.56;5047111;28;20488;-72
2023/09/23 03:45:43;;;;;;;6.68;4.80;;;;;;;12.35;100.00;100644.31;5042298;28;19912;-73
2023/09/23 03:48:10;;;;;;;9.77;5.40;;;;;;;12.52;100.00;100640.78;5022348;28;20056;-73
2023/09/23 03:50:36;;;;;;;11.48;5.72;;;;;;;12.48;100.00;100637.16;5024811;28;20055;-72
2023/09/23 03:53:01;;;;;;;10.32;6.00;;;;;;;12.44;100.00;100638.31;5046002;28;20028;-72
2023/09/23 03:55:28;;;;;;;8.35;5.55;;;;;;;12.41;100.00;100645.53;5044093;28;20035;-72
2023/09/23 03:57:54;;;;;;;11.68;6.25;;;;;;;12.41;100.00;100635.09;5045191;28;20029;-75
2023/09/23 04:00:20;;;;;;;13.32;7.03;;;;;;;12.31;100.00;100649.94;5025251;28;20095;-75
2023/09/23 04:02:49;;;;;;;14.00;6.72;;;;;;;12.41;100.00;100657.56;5034298;28;20041;-75
2023/09/23 04:05:15;;;;;;;12.65;7.05;;;;;;;12.45;100.00;100651.16;5039683;28;20033;-75
2023/09/23 04:07:50;;;;;;;11.82;7.88;;;;;;;12.22;100.00;100655.09;5040674;28;20058;-75
2023/09/23 04:10:23;;;;;;;17.20;7.55;;;;;;;12.33;100.00;100655.94;5045966;28;20053;-76
2023/09/23 04:12:49;;;;;;;;;;;;;;;12.34;100.00;100668.78;5044654;28;20037;-75
2023/09/23 04:15:15;;;;;;;17.27;7.88;;;;;;;12.18;100.00;100660.69;5024050;28;19920;-75
2023/09/23 04:17:40;;;;;;;15.85;9.88;;;;;;;11.87;100.00;100669.69;5023601;28;20487;-76
2023/09/23 04:20:10;;;;;;;15.15;9.05;;;;;;;12.11;100.00;100673.88;5024810;28;20490;-76
2023/09/23 04:22:40;;;;;;;15.65;9.38;;;;;;;12.29;100.00;100677.59;5041549;28;20060;-76
2023/09/23 04:25:08;;;;;;;15.27;9.00;;;;;;;12.27;100.00;100684.75;5043428;28;20032;-76
2023/09/23 04:27:36;;;;;;;16.15;8.98;;;;;;;12.21;100.00;100684.34;5030325;28;20036;-76
2023/09/23 04:30:09;;;;;;;15.48;9.38;;;;;;;11.97;100.00;100689.47;5045262;28;20108;-76
2023/09/23 04:32:34;;;;;;;;;;;;;;;12.17;100.00;100697.56;5040908;28;20450;-76
2023/09/23 04:34:59;;;;;;;19.98;10.80;;;;;;;12.09;100.00;100690.31;5039577;28;19913;-76
2023/09/23 04:37:27;;;;;;;19.60;10.70;;;;;;;12.08;100.00;100699.91;5041254;28;20378;-76
2023/09/23 04:39:53;;;;;;;23.90;11.90;;;;;;;12.02;100.00;100695.84;5028502;28;20025;-76
2023/09/23 04:42:21;;;;;;;19.23;11.18;;;;;;;12.18;100.00;100701.97;5045126;28;20502;-76
2023/09/23 04:44:46;;;;;;;21.98;12.38;;;;;;;12.26;100.00;100697.19;5042027;28;20032;-76
2023/09/23 04:47:12;;;;;;;22.65;12.65;;;;;;;12.28;100.00;100692.78;5038202;28;20048;-76
2023/09/23 04:49:40;;;;;;;22.25;12.60;;;;;;;12.19;100.00;100701.59;5040719;28;20088;-76
2023/09/23 04:52:06;;;;;;;25.33;12.45;;;;;;;12.24;100.00;100702.41;5031482;28;20429;-76
2023/09/23 04:54:31;;;;;;;24.40;13.07;;;;;;;12.33;100.00;100709.28;5042056;28;20108;-76
2023/09/23 04:56:56;;;;;;;25.33;15.40;;;;;;;12.31;100.00;100708.88;5041551;28;20421;-76
2023/09/23 04:59:21;;;;;;;22.23;12.07;;;;;;;12.26;100.00;100716.84;5044521;28;20519;-76
2023/09/23 05:01:47;;;;;;;20.48;12.70;;;;;;;12.14;100.00;100709.56;5040717;28;20143;-76
2023/09/23 05:04:12;;;;;;;20.05;11.63;;;;;;;12.23;100.00;100718.44;5044744;28;20116;-76
2023/09/23 05:06:38;;;;;;;22.33;13.98;;;;;;;12.22;100.00;100727.25;5046405;28;20078;-76
2023/09/23 05:09:04;;;;;;;20.35;12.68;;;;;;;12.27;100.00;100730.50;5044901;28;20033;-75
2023/09/23 05:11:29;;;;;;;26.85;12.85;;;;;;;12.30;100.00;100729.69;5047313;28;20124;-75
2023/09/23 05:13:55;;;;;;;21.75;12.00;;;;;;;12.30;100.00;100732.50;5050293;28;20116;-75
2023/09/23 05:16:20;;;;;;;21.50;13.48;;;;;;;12.34;100.00;100738.94;5048178;28;20024;-75
2023/09/23 05:18:48;;;;;;;20.38;13.32;;;;;;;12.21;100.00;100743.28;5042196;28;20076;-75
2023/09/23 05:21:13;;;;;;;24.92;13.77;;;;;;;12.22;100.00;100755.31;5040669;28;20099;-75
2023/09/23 05:23:41;;;;;;;22.77;14.32;;;;;;;11.91;100.00;100747.13;5042039;28;20076;-75
2023/09/23 05:26:07;;;;;;;24.30;13.70;;;;;;;12.05;100.00;100754.81;5047193;28;20025;-75
2023/09/23 05:28:33;;;;;;;27.80;14.50;;;;;;;12.17;100.00;100750.88;5027032;28;20491;-75
2023/09/23 05:30:59;;;;;;;20.58;12.20;;;;;;;12.04;100.00;100758.81;5044153;28;20029;-75
2023/09/23 05:33:24;;;;;;;25.38;13.73;;;;;;;12.10;100.00;100764.84;5049790;28;20481;-75
2023/09/23 05:35:51;;;;;;;26.25;16.77;;;;;;;11.90;100.00;100767.13;5045314;28;20108;-75
2023/09/23 05:38:17;;;;;;;24.67;14.00;;;;;;;12.08;100.00;100772.84;5048204;28;20025;-75
2023/09/23 05:40:42;;;;;;;21.85;13.40;;;;;;;12.06;100.00;100778.03;5045169;28;20039;-75
2023/09/23 05:43:08;;;;;;;22.85;14.30;;;;;;;12.06;100.00;100789.25;5055366;28;20039;-75
2023/09/23 05:45:35;;;;;;;22.92;14.45;;;;;;;11.97;100.00;100787.63;5043301;28;20393;-76
2023/09/23 05:48:03;;;;;;;25.98;16.17;;;;;;;11.93;100.00;100795.22;5029315;28;20106;-75
2023/09/23 05:50:28;;;;;;;23.23;13.18;;;;;;;12.08;100.00;100795.28;5048130;28;20040;-75
2023/09/23 05:52:56;;;;;;;26.60;13.15;;;;;;;12.22;100.00;100797.41;5048758;28;20046;-75
2023/09/23 05:55:21;;;;;;;23.10;14.05;;;;;;;12.06;100.00;100797.69;5039527;28;20105;-75
2023/09/23 05:57:47;;;;;;;25.00;13.23;;;;;;;12.20;100.00;100803.41;5046460;28;20112;-75
2023/09/23 06:00:15;;;;;;;24.65;13.57;;;;;;;12.21;100.00;100807.81;5042387;28;20472;-75
2023/09/23 06:02:41;;;;;;;19.83;12.60;;;;;;;12.15;100.00;100800.97;5043564;28;20033;-76
2023/09/23 06:05:07;;;;;;;22.55;12.00;;;;;;;12.20;100.00;100815.41;5045737;28;20025;-75
2023/09/23 06:07:32;;;;;;;20.00;11.38;;;;;;;12.02;100.00;100822.94;5044137;28;20028;-75
2023/09/23 06:09:59;;;;;;;24.48;12.10;;;;;;;12.11;100.00;100816.97;5045368;28;20534;-75
2023/09/23 06:12:31;;;;;;;22.23;12.00;;;;;;;12.21;100.00;100833.09;5039903;28;20024;-75
2023/09/23 06:15:00;;;;;;;22.85;12.25;;;;;;;12.23;100.00;100835.47;5046193;28;20480;-76
2023/09/23 06:17:32;;;;;;;20.00;12.55;;;;;;;12.32;100.00;100847.19;5042244;28;20861;-75
2023/09/23 06:19:58;;;;;;;24.33;12.67;;;;;;;12.17;100.00;100846.28;5045469;28;20033;-75
2023/09/23 06:22:23;;;;;;;19.80;10.98;;;;;;;12.23;100.00;100846.69;5042900;28;20016;-75
2023/09/23 06:24:52;;;;;;;19.13;11.38;;;;;;;12.39;100.00;100844.41;5048022;28;20021;-75
2023/09/23 06:27:18;;;;;;;20.42;12.57;;;;;;;12.22;100.00;100856.34;5020498;28;20024;-75
2023/09/23 06:29:44;;;;;;;21.30;13.57;;;;;;;12.15;100.00;100845.88;5042576;28;20025;-75
2023/09/23 06:32:10;;;;;;;20.65;11.80;;;;;;;12.25;100.00;100864.78;5040639;28;20041;-76
2023/09/23 06:34:36;;;;;;;20.52;11.85;;;;;;;12.35;100.00;100866.88;5039880;28;20044;-75
2023/09/23 06:37:01;;;;;;;21.35;11.63;;;;;;;12.29;100.00;100867.59;5036812;28;20094;-75
2023/09/23 06:39:27;;;;;;;20.55;12.57;;;;;;;12.33;100.00;100874.88;5046274;28;20039;-75
2023/09/23 06:41:52;;;;;;;22.10;12.60;;;;;;;12.35;100.00;100877.25;5043954;28;20472;-75
2023/09/23 06:44:18;;;;;;;18.52;11.88;;;;;;;12.41;100.00;100882.13;5038638;28;20059;-75
2023/09/23 06:46:43;;;;;;;23.83;13.27;;;;;;;12.38;100.00;100888.53;5039687;28;20071;-75
2023/09/23 06:49:09;;;;;;;24.50;12.38;;;;;;;12.34;100.00;100893.31;5036243;28;20061;-76
2023/09/23 06:51:34;;;;;;;23.13;13.38;;;;;;;12.35;100.00;100897.75;5038920;28;20060;-76
2023/09/23 06:53:59;;;;;;;20.83;12.05;;;;;;;12.43;100.00;100898.56;5020168;28;20027;-75
2023/09/23 06:56:25;;;;;;;21.90;13.50;;;;;;;12.44;100.00;100896.56;5021198;28;20048;-76
2023/09/23 06:58:50;;;;;;;19.67;12.43;;;;;;;12.44;100.00;100896.56;5018723;28;20071;-76
2023/09/23 07:01:16;;;;;;;18.23;11.63;;;;;;;12.39;100.00;100887.31;5038920;28;20029;-76
2023/09/23 07:03:42;;;;;;;21.45;11.88;;;;;;;12.33;100.00;100897.31;5032859;28;20048;-76
2023/09/23 07:06:07;;;;;;;22.05;11.80;;;;;;;12.39;100.00;100901.34;5037371;28;20029;-76
2023/09/23 07:08:32;;;;;;;18.23;12.48;;;;;;;12.29;100.00;100901.28;5034277;28;20037;-76
2023/09/23 07:10:58;;;;;;;23.38;13.65;;;;;;;12.31;100.00;100891.28;5035844;28;20427;-76
2023/09/23 07:13:23;;;;;;;20.00;12.98;;;;;;;12.33;100.00;100900.13;5041714;28;20530;-76
2023/09/23 07:15:48;;;;;;;12.18;7.40;;;;;;;14.03;100.00;100908.88;5037476;28;20029;-75
2023/09/23 07:18:14;;;;;;;14.32;6.63;;;;;;;15.61;100.00;100911.31;5019129;28;20037;-77
2023/09/23 07:20:39;;;;;;;11.50;5.82;;;;;;;16.42;100.00;100930.94;5034568;28;20094;-77
2023/09/23 07:23:05;;;;;;;13.43;6.45;;;;;;;16.61;100.00;100925.91;5040044;28;20040;-77
2023/09/23 07:25:40;;;;;;;16.30;6.50;;;;;;;16.36;100.00;100924.13;5020141;28;20078;-76
2023/09/23 07:28:08;;;;;;;11.00;6.18;;;;;;;16.42;100.00;100930.94;5020084;28;20175;-78
2023/09/23 07:30:35;;;;;;;12.57;7.30;;;;;;;16.51;100.00;100932.44;5034811;28;20033;-78
2023/09/23 07:33:00;;;;;;;11.27;7.25;;;;;;;16.78;100.00;100936.25;5033699;28;20036;-78
2023/09/23 07:35:33;;;;;;;11.52;7.25;;;;;;;16.26;100.00;100948.41;5017565;28;20024;-77
2023/09/23 07:38:01;;;;;;;;;;;;;;;15.67;100.00;100948.38;5041516;28;20036;-78
2023/09/23 07:40:27;;;;;;;12.38;7.60;;;;;;;16.10;100.00;100958.63;5039432;28;20355;-78
2023/09/23 07:42:53;;;;;;;11.15;6.70;;;;;;;16.21;100.00;100964.97;5038270;28;20033;-78
2023/09/23 07:45:18;;;;;;;12.30;7.60;;;;;;;16.33;100.00;100970.13;5035286;28;20741;-78
2023/09/23 07:47:44;;;;;;;11.93;7.45;;;;;;;16.52;100.00;100977.25;5022292;28;20147;-77
2023/09/23 07:50:09;;;;;;;11.55;6.97;;;;;;;16.32;100.00;100979.00;5034697;28;20037;-76
2023/09/23 07:52:35;;;;;;;9.38;6.13;;;;;;;16.64;100.00;100988.03;5038933;28;20083;-76
2023/09/23 07:55:01;;;;;;;11.70;7.45;;;;;;;16.28;100.00;100990.34;5036093;28;20017;-76
2023/09/23 07:57:27;;;;;;;7.85;5.95;;;;;;;16.71;100.00;100997.69;5040214;28;20029;-79
2023/09/23 07:59:52;;;;;;;14.23;7.43;;;;;;;16.47;100.00;100986.19;5024820;28;20039;-75
2023/09/23 08:02:17;;;;;;;14.38;7.97;;;;;;;16.38;100.00;100997.94;5020612;28;20055;-76
2023/09/23 08:04:43;;;;;;;9.43;7.10;;;;;;;16.23;100.00;100996.44;5040694;28;20033;-77
2023/09/23 08:07:08;;;;;;;10.13;6.32;;;;;;;16.49;100.00;101002.72;5044409;28;20037;-76
2023/09/23 08:09:33;;;;;;;13.93;7.75;;;;;;;16.48;100.00;101003.94;5027489;28;20156;-76
2023/09/23 08:11:59;;;;;;;12.20;7.45;;;;;;;16.46;100.00;101001.50;5043023;28;20069;-78
2023/09/23 08:14:25;;;;;;;10.93;5.78;;;;;;;16.38;100.00;101006.44;5027856;28;20072;-76
2023/09/23 08:16:50;;;;;;;8.93;6.22;;;;;;;16.66;100.00;101013.06;5045181;28;20029;-77
2023/09/23 08:19:16;;;;;;;6.82;5.53;;;;;;;16.41;100.00;101018.91;5042207;28;20040;-76
2023/09/23 08:21:42;;;;;;;7.45;5.13;;;;;;;16.34;100.00;101028.25;5037030;28;20078;-75
2023/09/23 08:24:07;;;;;;;9.73;6.63;;;;;;;15.78;100.00;101019.69;5025174;28;20119;-76
2023/09/23 08:26:33;;;;;;;8.90;5.93;;;;;;;16.61;100.00;101030.44;5050954;28;20397;-77
2023/09/23 08:28:58;;;;;;;11.25;6.13;;;;;;;16.22;100.00;101040.03;5038035;28;20132;-75
2023/09/23 08:31:24;;;;;;;10.90;6.20;;;;;;;16.09;100.00;101036.09;5044082;28;20132;-77
2023/09/23 08:33:49;;;;;;;9.00;5.65;;;;;;;16.36;100.00;101036.28;5028833;28;20029;-76
2023/09/23 08:36:15;;;;;;;8.63;5.70;;;;;;;15.45;100.00;101043.56;5026191;28;20049;-78
2023/09/23 08:38:41;;;;;;;8.02;4.97;;;;;;;15.57;100.00;101051.59;5045018;28;20025;-78
2023/09/23 08:41:07;;;;;;;7.80;5.60;;;;;;;15.75;100.00;101056.41;5027320;28;20071;-76
2023/09/23 08:43:38;;;;;;;7.45;4.95;;;;;;;15.51;100.00;101053.22;5044527;28;20028;-75
2023/09/23 08:46:09;;;;;;;6.88;5.07;;;;;;;15.86;100.00;101062.81;5023883;28;21515;-75
2023/09/23 08:48:38;;;;;;;9.18;6.55;;;;;;;15.40;100.00;101066.56;5042990;28;20029;-72
2023/09/23 08:51:06;;;;;;;7.72;5.57;;;;;;;14.78;100.00;101054.56;5047788;28;20498;-72
2023/09/23 08:53:33;;;;;;;6.80;5.78;;;;;;;14.50;100.00;101057.31;5047167;28;20427;-74
2023/09/23 08:56:00;;;;;;;7.72;5.53;;;;;;;14.35;100.00;101051.66;5043361;28;20121;-73
2023/09/23 08:58:25;;;;;;;10.82;5.90;;;;;;;14.36;100.00;101052.50;5049902;28;20048;-77
2023/09/23 09:00:52;;;;;;;8.93;5.22;;;;;;;14.46;100.00;101062.13;5050808;28;20388;-77
2023/09/23 09:03:17;;;;;;;7.00;5.22;;;;;;;14.54;100.00;101064.56;5047370;28;20056;-76
2023/09/23 09:05:43;;;;;;;6.07;4.25;;;;;;;14.58;100.00;101064.59;5044186;28;20033;-76
2023/09/23 09:08:09;;;;;;;8.88;4.90;;;;;;;14.60;100.00;101073.47;5046533;28;20120;-76
2023/09/23 09:10:34;;;;;;;5.80;5.03;;;;;;;14.59;100.00;101077.50;5041968;28;20119;-76
2023/09/23 09:13:05;;;;;;;7.25;4.63;;;;;;;14.61;100.00;101092.78;5045871;28;20063;-78
2023/09/23 09:15:33;;;;;;;11.00;5.15;;;;;;;14.62;100.00;101087.94;5031471;28;20051;-76
2023/09/23 09:17:59;;;;;;;8.27;5.03;;;;;;;14.81;100.00;101081.91;5047154;28;20468;-77
2023/09/23 09:20:24;;;;;;;8.75;4.68;;;;;;;14.57;100.00;101088.34;5041223;28;20025;-77
2023/09/23 09:22:50;;;;;;;6.90;4.95;;;;;;;14.70;100.00;101100.03;5024936;28;20484;-76
2023/09/23 09:25:20;;;;;;;5.78;4.97;;;;;;;14.76;100.00;101087.97;5048528;28;20634;-77
2023/09/23 09:27:49;;;;;;;6.03;3.63;;;;;;;14.89;100.00;101104.47;5040158;28;20098;-74
2023/09/23 09:30:14;;;;;;;6.88;4.65;;;;;;;14.91;100.00;101102.06;5035885;28;20033;-74
2023/09/23 09:32:44;;;;;;;5.00;3.97;;;;;;;14.92;100.00;101104.47;5041927;28;20036;-74
2023/09/23 09:35:14;;;;;;;8.30;4.30;;;;;;;15.22;100.00;101098.44;5040380;28;20033;-75
2023/09/23 09:37:43;;;;;;;6.60;3.58;;;;;;;15.77;100.00;101104.75;5043157;28;20040;-75
2023/09/23 09:40:11;;;;;;;4.70;3.85;;;;;;;15.51;100.00;101109.63;5041386;28;20021;-76
2023/09/23 09:42:39;;;;;;;4.18;3.78;;;;;;;15.23;100.00;101105.66;5016982;28;20040;-76
2023/09/23 09:45:09;;;;;;;5.47;3.83;;;;;;;15.13;100.00;101111.31;5043720;28;20485;-75
2023/09/23 09:47:38;;;;;;;4.25;2.90;;;;;;;15.79;100.00;101120.09;5019685;28;20055;-76
2023/09/23 09:50:04;;;;;;;6.32;4.07;;;;;;;15.23;100.00;101105.66;5023930;28;20016;-76
2023/09/23 09:52:32;;;;;;;5.70;3.42;;;;;;;15.57;100.00;101119.28;5044267;28;20021;-77
2023/09/23 09:55:03;;;;;;;8.20;3.85;;;;;;;15.61;100.00;101108.81;5025879;28;20032;-76
2023/09/23 09:57:29;;;;;;;6.43;4.72;;;;;;;15.67;100.00;101119.69;5043621;28;20051;-76
2023/09/23 09:59:59;;;;;;;4.80;3.53;;;;;;;15.86;100.00;101113.63;5025132;28;20056;-76
2023/09/23 10:02:24;;;;;;;7.43;3.72;;;;;;;15.72;100.00;101122.13;5037335;28;20053;-76
2023/09/23 10:04:51;;;;;;;5.80;4.05;;;;;;;15.17;100.00;101127.00;5041375;28;20052;-77
2023/09/23 10:07:17;;;;;;;5.18;3.35;;;;;;;16.34;100.00;101127.13;5044032;28;20041;-76
2023/09/23 10:09:53;;;;;;;3.90;3.53;;;;;;;15.92;100.00;101136.59;5044832;28;20045;-76
2023/09/23 10:12:19;;;;;;;7.10;3.70;;;;;;;15.80;100.00;101132.97;5039058;28;20036;-76
2023/09/23 10:14:56;;;;;;;3.42;3.00;;;;;;;15.92;100.00;101134.56;5044930;28;20473;-76
2023/09/23 10:17:30;;;;;;;4.70;2.97;;;;;;;16.07;100.00;101140.16;5040892;28;20661;-76
2023/09/23 10:19:56;;;;;;;4.20;3.40;;;;;;;15.74;100.00;101143.06;5043402;28;20053;-75
2023/09/23 10:22:23;;;;;;;5.18;3.15;;;;;;;15.94;100.00;101148.25;5025693;28;20556;-75
2023/09/23 10:25:04;;;;;;;5.55;3.08;;;;;;;16.21;100.00;101149.38;5040568;28;20033;-74
2023/09/23 10:27:30;;;;;;;5.13;2.83;;;;;;;16.53;100.00;101156.88;5044024;28;20033;-75
2023/09/23 10:29:56;;;;;;;8.57;4.75;;;;;;;15.98;100.00;101161.16;5040897;28;20108;-75
2023/09/23 10:32:22;;;;;;;5.72;3.30;;;;;;;16.74;100.00;101166.41;5020969;28;20124;-75
2023/09/23 10:34:53;;;;;;;4.32;3.47;;;;;;;16.44;100.00;101171.47;5044578;28;20195;-75
2023/09/23 10:37:30;;;;;;;4.65;3.10;;;;;;;16.07;100.00;101169.19;5043868;28;20144;-77
2023/09/23 10:40:05;;;;;;;5.32;2.53;;;;;;;16.39;100.00;101177.53;5045214;28;20377;-77
2023/09/23 10:42:33;;;;;;;6.97;2.97;;;;;;;16.28;100.00;101168.31;5024236;28;20055;-77
2023/09/23 10:45:03;;;;;;;3.15;2.83;;;;;;;16.00;100.00;101180.50;5045084;28;20028;-77
2023/09/23 10:47:29;;;;;;;11.55;4.30;;;;;;;16.18;100.00;101183.28;5041279;28;20033;-77
2023/09/23 10:49:55;;;;;;;4.05;3.30;;;;;;;16.00;100.00;101175.69;5025309;28;20033;-76
2023/09/23 10:52:20;;;;;;;2.53;2.33;;;;;;;16.22;100.00;101184.06;5037053;28;20119;-76
2023/09/23 10:54:48;;;;;;;3.70;2.28;;;;;;;16.28;100.00;101185.25;5020391;28;20489;-78
2023/09/23 10:57:13;;;;;;;3.72;2.78;;;;;;;16.85;100.00;101192.66;5043336;28;22446;-77
2023/09/23 10:59:39;;;;;;;3.35;2.50;;;;;;;16.34;100.00;101194.91;5042403;28;20028;-78
2023/09/23 11:02:05;;;;;;;2.20;2.00;;;;;;;16.36;100.00;101200.13;5021588;28;20137;-78
2023/09/23 11:04:30;;;;;;;5.45;2.10;;;;;;;16.67;100.00;101204.03;5045664;28;20126;-77
2023/09/23 11:06:56;;;;;;;3.03;1.95;;;;;;;16.14;100.00;101202.25;5040742;28;20033;-78
2023/09/23 11:09:22;;;;;;;5.35;2.05;;;;;;;16.52;100.00;101208.16;5035666;28;20029;-78